Time;durP1;ratioP1;P1;durP2;ratioP2;P2;SDS_P1;SDS_P2;PMS_P1;PMS_P2;Temp;Humidity;BMP_temperature;BMP_pressure;BME280_temperature;BME280_humidity;BME280_pressure;Samples;Min_cycle;Max_cycle;Signal;HPM_P1;HPM_P2
2021/11/10 00:00:10;;;;;;;10.80;5.13;;;6.70;99.90;;;;;;12382783;28;20511;-37
2021/11/10 00:06:12;;;;;;;11.85;4.95;;;6.50;99.90;;;;;;12384524;28;20043;-37
2021/11/10 00:12:13;;;;;;;11.60;5.47;;;6.50;99.90;;;;;;12380295;28;20050;-41
2021/11/10 00:18:17;;;;;;;12.57;6.57;;;6.40;99.90;;;;;;12380403;28;20096;-42
2021/11/10 00:24:21;;;;;;;14.70;6.57;;;6.20;99.90;;;;;;12362165;28;20508;-44
2021/11/10 00:30:24;;;;;;;12.95;6.18;;;6.00;99.90;;;;;;12394677;28;20042;-42
2021/11/10 00:36:27;;;;;;;12.07;4.93;;;6.00;99.90;;;;;;12412934;28;20049;-40
2021/11/10 00:42:31;;;;;;;10.50;4.88;;;5.90;99.90;;;;;;12427612;28;20061;-41
2021/11/10 00:48:35;;;;;;;;;;;5.30;99.90;;;;;;12432929;28;20458;-36
2021/11/10 00:54:39;;;;;;;10.70;5.50;;;5.20;99.90;;;;;;12427067;28;20368;-41
2021/11/10 01:00:43;;;;;;;10.73;5.63;;;5.50;99.90;;;;;;12426753;28;20053;-40
2021/11/10 01:06:47;;;;;;;13.88;5.68;;;5.40;99.90;;;;;;12426325;28;20100;-39
2021/11/10 01:12:53;;;;;;;10.13;5.18;;;5.40;99.90;;;;;;12419849;28;20468;-43
2021/11/10 01:18:55;;;;;;;12.30;5.63;;;5.70;99.90;;;;;;12416895;28;21016;-37
2021/11/10 01:25:00;;;;;;;10.98;5.43;;;5.80;99.90;;;;;;12427770;28;20050;-37
2021/11/10 01:31:03;;;;;;;11.82;5.80;;;5.80;99.90;;;;;;12429858;28;20068;-43
2021/11/10 01:37:06;;;;;;;11.40;5.00;;;5.80;99.90;;;;;;12419319;28;20056;-41
2021/11/10 01:43:15;;;;;;;7.15;4.30;;;5.90;99.90;;;;;;12423910;28;20180;-41
2021/11/10 01:49:17;;;;;;;8.38;3.50;;;5.90;99.90;;;;;;12417547;28;20144;-37
2021/11/10 01:55:20;;;;;;;7.47;3.80;;;5.90;99.90;;;;;;12416989;28;20057;-41
2021/11/10 02:01:23;;;;;;;9.40;4.05;;;5.90;99.90;;;;;;12435691;28;20140;-41
2021/11/10 02:07:28;;;;;;;7.25;4.35;;;5.80;99.90;;;;;;12437121;28;20108;-41
2021/11/10 02:13:30;;;;;;;8.80;4.85;;;5.80;99.90;;;;;;12433587;28;20061;-40
2021/11/10 02:19:33;;;;;;;6.72;3.85;;;5.70;99.90;;;;;;12438324;28;20052;-37
2021/11/10 02:25:36;;;;;;;7.13;3.35;;;5.70;99.90;;;;;;12432247;28;20046;-40
2021/11/10 02:31:50;;;;;;;10.18;2.78;;;5.50;99.90;;;;;;12393162;28;20065;-40
2021/11/10 02:38:02;;;;;;;6.35;3.30;;;5.10;99.90;;;;;;12387970;28;20042;-38
2021/11/10 02:44:06;;;;;;;6.32;3.75;;;5.60;99.90;;;;;;12384180;28;20603;-40
2021/11/10 02:50:10;;;;;;;9.33;4.80;;;5.50;99.90;;;;;;12384683;28;20050;-37
2021/11/10 02:56:13;;;;;;;8.98;5.60;;;5.40;99.90;;;;;;12386783;28;20848;-36
2021/11/10 03:02:26;;;;;;;11.70;6.20;;;5.50;99.90;;;;;;12386501;28;20113;-40
2021/11/10 03:08:28;;;;;;;9.90;5.30;;;5.40;99.90;;;;;;12382040;28;20047;-38
2021/11/10 03:14:33;;;;;;;11.43;5.80;;;5.20;99.90;;;;;;12382683;28;20046;-40
2021/11/10 03:20:37;;;;;;;10.88;5.80;;;5.20;99.90;;;;;;12382407;28;20051;-40
2021/11/10 03:26:40;;;;;;;10.80;6.70;;;5.20;99.90;;;;;;12368022;28;20061;-39
2021/11/10 03:32:45;;;;;;;12.40;6.32;;;5.10;99.90;;;;;;12430649;28;20045;-40
2021/11/10 03:38:48;;;;;;;13.35;6.50;;;5.00;99.90;;;;;;12432970;28;20069;-39
2021/11/10 03:44:52;;;;;;;9.05;4.95;;;4.90;99.90;;;;;;12429405;28;20061;-43
2021/11/10 03:50:54;;;;;;;14.70;5.95;;;4.90;99.90;;;;;;12427658;28;20189;-40
2021/11/10 03:56:56;;;;;;;9.68;5.00;;;4.80;99.90;;;;;;12427776;28;20049;-36
2021/11/10 04:02:59;;;;;;;10.73;6.22;;;4.70;99.90;;;;;;12427999;28;20168;-36
2021/11/10 04:09:02;;;;;;;10.68;6.68;;;4.60;99.90;;;;;;12430911;28;20049;-39
2021/11/10 04:15:05;;;;;;;11.20;5.28;;;4.60;99.90;;;;;;12427192;28;20053;-39
2021/11/10 04:21:07;;;;;;;15.25;5.85;;;4.60;99.90;;;;;;12424979;28;20046;-35
2021/11/10 04:27:09;;;;;;;8.68;5.28;;;4.60;99.90;;;;;;12408538;28;20138;-39
2021/11/10 04:33:12;;;;;;;10.68;5.43;;;4.60;99.90;;;;;;12418051;28;20579;-36
2021/11/10 04:39:14;;;;;;;8.57;5.15;;;4.60;99.90;;;;;;12429332;28;20076;-40
2021/11/10 04:45:23;;;;;;;9.95;5.70;;;4.60;99.90;;;;;;12429252;28;20083;-36
2021/11/10 04:51:26;;;;;;;9.32;5.47;;;4.50;99.90;;;;;;12424963;28;20049;-40
2021/11/10 04:57:30;;;;;;;12.38;5.93;;;4.60;99.90;;;;;;12429752;28;20489;-36
2021/11/10 05:03:32;;;;;;;8.13;5.47;;;4.50;99.90;;;;;;12410990;28;20058;-36
2021/11/10 05:09:34;;;;;;;12.40;6.00;;;4.50;99.90;;;;;;12426609;28;20137;-36
2021/11/10 05:15:36;;;;;;;10.43;5.78;;;4.50;99.90;;;;;;12405809;28;20069;-40
2021/11/10 05:21:40;;;;;;;12.95;5.95;;;4.40;99.90;;;;;;12421624;28;20057;-40
2021/11/10 05:27:42;;;;;;;10.73;5.93;;;4.30;99.90;;;;;;12424453;28;20062;-41
2021/11/10 05:33:44;;;;;;;8.98;5.40;;;4.30;99.90;;;;;;12433962;28;20054;-36
2021/11/10 05:39:46;;;;;;;11.07;5.90;;;4.10;99.90;;;;;;12436719;28;20107;-40
2021/11/10 05:45:48;;;;;;;12.07;5.82;;;4.10;99.90;;;;;;12434292;28;20084;-36
2021/11/10 05:51:51;;;;;;;9.52;5.47;;;4.20;99.90;;;;;;12436246;28;20048;-36
2021/11/10 05:57:54;;;;;;;8.75;5.68;;;4.30;99.90;;;;;;12435163;28;20749;-35
2021/11/10 06:03:56;;;;;;;13.00;6.55;;;4.30;99.90;;;;;;12435614;28;20041;-36
2021/11/10 06:10:00;;;;;;;12.70;6.28;;;4.20;99.90;;;;;;12434788;28;20065;-41
2021/11/10 06:16:05;;;;;;;10.40;5.93;;;4.00;99.90;;;;;;12430287;28;20524;-39
2021/11/10 06:22:12;;;;;;;18.88;6.40;;;4.00;99.90;;;;;;12433461;28;20046;-35
2021/11/10 06:28:24;;;;;;;19.08;7.93;;;4.00;99.90;;;;;;12437266;28;20412;-39
2021/11/10 06:34:42;;;;;;;21.63;7.20;;;3.90;99.90;;;;;;12419133;28;20198;-36
2021/11/10 06:40:52;;;;;;;10.73;5.57;;;3.50;99.90;;;;;;12429330;28;20614;-36
2021/11/10 06:47:06;;;;;;;13.32;6.55;;;2.60;99.90;;;;;;12434178;28;20050;-36
2021/11/10 06:53:17;;;;;;;11.55;6.93;;;2.50;99.90;;;;;;12434225;28;20574;-39
2021/11/10 06:59:25;;;;;;;14.63;8.45;;;2.30;99.90;;;;;;12417854;28;20488;-40
2021/11/10 07:05:28;;;;;;;13.63;7.80;;;2.40;99.90;;;;;;12433739;28;20056;-39
2021/11/10 07:11:34;;;;;;;16.23;8.02;;;2.40;99.90;;;;;;12426917;28;20817;-40
2021/11/10 07:17:37;;;;;;;12.75;8.73;;;2.50;99.90;;;;;;12389171;28;20061;-35
2021/11/10 07:23:44;;;;;;;14.35;8.10;;;2.90;99.90;;;;;;12430207;28;20877;-36
2021/11/10 07:29:54;;;;;;;14.75;6.65;;;3.10;99.90;;;;;;12406560;28;20108;-39
2021/11/10 07:36:05;;;;;;;12.55;6.25;;;3.00;99.90;;;;;;12381716;28;20096;-41
2021/11/10 07:42:15;;;;;;;15.77;7.80;;;3.30;99.90;;;;;;12384040;28;20042;-35
2021/11/10 07:48:28;;;;;;;14.55;7.63;;;3.50;99.90;;;;;;12387272;28;20497;-40
2021/11/10 07:54:38;;;;;;;11.82;7.22;;;4.00;99.90;;;;;;12375600;28;20058;-40
2021/11/10 08:00:43;;;;;;;17.38;7.80;;;4.30;99.90;;;;;;12377636;28;20081;-35
2021/11/10 08:06:47;;;;;;;14.85;8.55;;;4.30;99.90;;;;;;12383552;28;20051;-36
2021/11/10 08:12:54;;;;;;;13.30;8.47;;;4.20;99.90;;;;;;12382633;28;20129;-40
2021/11/10 08:19:07;;;;;;;14.25;7.90;;;4.20;99.90;;;;;;12365576;28;20133;-40
2021/11/10 08:25:19;;;;;;;15.90;8.07;;;4.10;99.90;;;;;;12379861;28;20092;-40
2021/11/10 08:31:29;;;;;;;15.27;8.10;;;4.00;99.90;;;;;;12398250;28;20088;-36
2021/11/10 08:37:46;;;;;;;13.55;7.70;;;4.20;99.90;;;;;;12432904;28;20468;-40
2021/11/10 08:44:02;;;;;;;15.80;8.55;;;4.50;99.90;;;;;;12423900;28;20053;-40
2021/11/10 08:50:10;;;;;;;14.98;9.32;;;4.80;99.90;;;;;;12429690;28;20046;-36
2021/11/10 08:56:13;;;;;;;13.88;8.18;;;5.00;99.90;;;;;;12386908;28;20042;-40
2021/11/10 09:02:15;;;;;;;36.25;14.75;;;5.30;99.90;;;;;;12409787;28;20503;-36
2021/11/10 09:08:19;;;;;;;16.90;9.82;;;5.30;99.90;;;;;;12422767;28;20132;-36
2021/11/10 09:14:21;;;;;;;17.85;9.48;;;5.50;99.90;;;;;;12423198;28;20042;-36
2021/11/10 09:20:25;;;;;;;14.23;9.07;;;5.60;99.90;;;;;;12431005;28;20046;-40
2021/11/10 09:26:29;;;;;;;13.30;9.00;;;5.60;99.90;;;;;;12431771;28;20041;-40
2021/11/10 09:32:37;;;;;;;13.90;9.73;;;5.70;99.90;;;;;;12426238;28;20074;-40
2021/11/10 09:38:42;;;;;;;17.52;9.98;;;5.70;99.90;;;;;;12428405;28;20046;-40
2021/11/10 09:44:45;;;;;;;17.20;10.15;;;5.90;99.90;;;;;;12428088;28;20061;-37
2021/11/10 09:50:48;;;;;;;15.30;9.70;;;6.00;99.90;;;;;;12421589;28;20042;-40
2021/11/10 09:56:55;;;;;;;16.15;10.05;;;6.30;99.90;;;;;;12426490;28;20042;-36
2021/11/10 10:03:07;;;;;;;10.88;6.10;;;6.80;99.90;;;;;;12407322;28;20046;-40
2021/11/10 10:09:18;;;;;;;15.45;5.82;;;6.60;99.90;;;;;;12413999;28;20057;-37
2021/11/10 10:15:25;;;;;;;13.80;4.75;;;6.70;99.90;;;;;;12423786;28;20050;-37
2021/11/10 10:21:34;;;;;;;12.27;4.18;;;7.20;99.90;;;;;;12434051;28;20058;-36
2021/11/10 10:27:56;;;;;;;7.05;4.13;;;7.80;99.90;;;;;;12420086;28;20050;-36
2021/11/10 10:34:05;;;;;;;8.40;4.13;;;8.00;99.90;;;;;;12427924;28;20085;-36
2021/11/10 10:40:16;;;;;;;8.90;4.32;;;8.40;99.90;;;;;;12435356;28;20065;-40
2021/11/10 10:46:37;;;;;;;9.35;5.03;;;8.70;99.90;;;;;;12435878;28;20054;-40
2021/11/10 10:52:56;;;;;;;7.90;4.70;;;8.70;99.90;;;;;;12437792;28;20132;-36
2021/11/10 10:59:11;;;;;;;7.07;4.10;;;8.90;99.90;;;;;;12433353;28;20072;-40
2021/11/10 11:05:52;;;;;;;16.23;4.82;;;8.90;99.90;;;;;;12433648;28;20046;-37
2021/11/10 11:18:02;;;;;;;8.60;5.22;;;9.00;99.90;;;;;;12431260;28;20049;-40
2021/11/10 11:24:06;;;;;;;11.20;6.07;;;9.00;99.90;;;;;;12432165;28;20431;-36
2021/11/10 11:30:12;;;;;;;10.88;5.00;;;8.90;99.90;;;;;;12431289;28;20532;-41
2021/11/10 11:36:15;;;;;;;8.40;3.88;;;8.80;99.90;;;;;;12431714;28;20045;-36
2021/11/10 11:42:20;;;;;;;10.57;3.75;;;8.90;99.90;;;;;;12427025;28;20068;-42
2021/11/10 11:48:24;;;;;;;;;;;9.10;99.90;;;;;;12431363;28;20042;-36
2021/11/10 11:54:28;;;;;;;7.72;3.75;;;9.40;99.90;;;;;;12429652;28;19925;-40
2021/11/10 12:00:48;;;;;;;8.97;4.53;;;9.70;99.90;;;;;;12431300;28;20172;-36
2021/11/10 12:06:53;;;;;;;9.02;4.60;;;9.90;99.90;;;;;;12432976;28;20054;-37
2021/11/10 12:13:13;;;;;;;5.95;3.53;;;9.80;99.90;;;;;;12427026;28;20074;-36
2021/11/10 12:19:40;;;;;;;7.53;4.20;;;9.90;99.90;;;;;;12414418;28;20049;-36
2021/11/10 12:26:02;;;;;;;7.97;4.30;;;9.90;99.90;;;;;;12427237;28;20052;-37
2021/11/10 12:32:07;;;;;;;8.63;3.65;;;10.10;99.90;;;;;;12426265;28;20073;-37
2021/11/10 12:38:20;;;;;;;9.43;3.65;;;9.80;99.90;;;;;;12429060;28;20050;-42
2021/11/10 12:44:30;;;;;;;7.60;3.80;;;9.80;99.90;;;;;;12425227;28;20430;-41
2021/11/10 12:50:50;;;;;;;7.32;3.70;;;9.90;99.90;;;;;;12429361;28;20057;-40
2021/11/10 12:56:56;;;;;;;7.43;3.95;;;9.70;99.90;;;;;;12428735;28;20096;-41
2021/11/10 13:03:00;;;;;;;12.05;4.32;;;9.50;99.90;;;;;;12424874;28;20038;-41
2021/11/10 13:09:24;;;;;;;9.15;4.78;;;9.40;99.90;;;;;;12421582;28;20050;-40
2021/11/10 13:15:36;;;;;;;8.20;4.45;;;9.40;99.90;;;;;;12427319;28;20097;-40
2021/11/10 13:21:54;;;;;;;10.55;4.97;;;9.40;99.90;;;;;;12422541;28;20103;-37
2021/11/10 13:28:05;;;;;;;8.57;5.45;;;9.30;99.90;;;;;;12426666;28;20057;-36
2021/11/10 13:34:13;;;;;;;13.35;5.35;;;9.20;99.90;;;;;;12426998;28;20067;-42
2021/11/10 13:40:22;;;;;;;12.95;5.20;;;9.10;99.90;;;;;;12423384;28;20081;-36
2021/11/10 13:46:30;;;;;;;11.15;5.30;;;9.00;99.90;;;;;;12406536;28;20519;-37
2021/11/10 13:52:35;;;;;;;14.57;5.53;;;8.90;99.90;;;;;;12427241;28;20057;-36
2021/11/10 13:58:37;;;;;;;11.00;4.97;;;8.80;99.90;;;;;;12404640;28;20060;-36
2021/11/10 14:04:48;;;;;;;13.13;5.53;;;8.90;99.90;;;;;;12428895;28;20053;-41
2021/11/10 14:10:59;;;;;;;10.85;5.75;;;8.90;99.90;;;;;;12427260;28;20132;-40
2021/11/10 14:17:05;;;;;;;9.32;4.90;;;8.80;99.90;;;;;;12409092;28;20144;-41
2021/11/10 14:23:11;;;;;;;11.75;4.97;;;8.80;99.90;;;;;;12425744;28;20511;-36
2021/11/10 14:29:14;;;;;;;9.05;4.60;;;8.80;99.90;;;;;;12423624;28;20054;-41
2021/11/10 14:35:17;;;;;;;14.80;6.00;;;8.70;99.90;;;;;;12422822;28;20065;-37
2021/11/10 14:41:35;;;;;;;16.10;7.03;;;8.60;99.90;;;;;;12422456;28;20070;-37
2021/11/10 14:47:37;;;;;;;11.18;6.15;;;8.60;99.90;;;;;;12427705;28;20057;-37
2021/11/10 14:53:40;;;;;;;11.63;6.68;;;8.70;99.90;;;;;;12425322;28;20050;-40
2021/11/10 14:59:48;;;;;;;9.63;6.05;;;8.60;99.90;;;;;;12427732;28;20168;-41
2021/11/10 15:05:52;;;;;;;10.27;5.68;;;8.50;99.90;;;;;;12422636;28;20085;-41
2021/11/10 15:11:56;;;;;;;12.30;5.22;;;8.30;99.90;;;;;;12421863;28;20053;-43
2021/11/10 15:18:12;;;;;;;;;;;8.10;99.90;;;;;;12424258;28;20046;-41
2021/11/10 15:24:14;;;;;;;10.65;4.70;;;7.90;99.90;;;;;;12414625;28;19932;-41
2021/11/10 15:30:24;;;;;;;13.13;5.32;;;7.90;99.90;;;;;;12407280;28;20558;-42
2021/11/10 15:36:26;;;;;;;18.27;7.07;;;8.00;99.90;;;;;;12419426;28;20050;-40
2021/11/10 15:42:29;;;;;;;12.85;6.82;;;7.90;99.90;;;;;;12427866;28;20056;-41
2021/11/10 15:48:31;;;;;;;11.70;5.95;;;7.60;99.90;;;;;;12424629;28;20504;-41
2021/11/10 15:54:33;;;;;;;12.77;5.88;;;7.50;99.90;;;;;;12425194;28;20133;-36
2021/11/10 16:00:42;;;;;;;12.18;5.07;;;7.40;99.90;;;;;;12422678;28;20489;-37
2021/11/10 16:06:52;;;;;;;12.50;5.40;;;7.30;99.90;;;;;;12423170;28;20484;-40
2021/11/10 16:12:56;;;;;;;12.82;6.03;;;7.00;99.90;;;;;;12423873;28;20058;-40
2021/11/10 16:18:59;;;;;;;12.82;6.65;;;6.90;99.90;;;;;;12422020;28;20061;-36
2021/11/10 16:25:02;;;;;;;11.67;5.87;;;6.90;99.90;;;;;;12402481;28;20105;-40
2021/11/10 16:37:09;;;;;;;13.95;6.90;;;6.40;99.90;;;;;;12423558;28;20136;-38
2021/11/10 16:43:13;;;;;;;14.27;7.95;;;6.30;99.90;;;;;;12420545;28;20177;-37
2021/11/10 16:49:15;;;;;;;15.77;7.45;;;6.20;99.90;;;;;;12422320;28;20053;-36
2021/11/10 16:55:20;;;;;;;13.63;8.10;;;6.30;99.90;;;;;;12420912;28;20065;-40
2021/11/10 17:01:22;;;;;;;11.80;6.57;;;6.20;99.90;;;;;;12424958;28;20137;-41
2021/11/10 17:07:24;;;;;;;13.85;8.20;;;6.20;99.90;;;;;;12427183;28;20077;-36
2021/11/10 17:13:28;;;;;;;13.60;7.05;;;6.30;99.90;;;;;;12414851;28;20089;-40
2021/11/10 17:19:31;;;;;;;;;;;6.30;99.90;;;;;;12423541;28;20481;-40
2021/11/10 17:25:33;;;;;;;12.98;7.40;;;6.40;99.90;;;;;;12418375;28;20375;-37
2021/11/10 17:31:35;;;;;;;13.45;7.57;;;6.40;99.90;;;;;;12428806;28;20092;-36
2021/11/10 17:37:38;;;;;;;16.27;8.10;;;6.40;99.90;;;;;;12433271;28;20050;-41
2021/11/10 17:43:41;;;;;;;17.65;8.35;;;6.10;99.90;;;;;;12428827;28;20129;-40
2021/11/10 17:49:43;;;;;;;15.98;7.38;;;6.20;99.90;;;;;;12432350;28;20690;-36
2021/11/10 17:55:45;;;;;;;20.10;7.93;;;6.30;99.90;;;;;;12430218;28;20903;-41
2021/11/10 18:01:48;;;;;;;12.05;7.53;;;6.10;99.90;;;;;;12428288;28;20501;-36
2021/11/10 18:07:50;;;;;;;13.52;8.30;;;6.00;99.90;;;;;;12429795;28;20057;-37
2021/11/10 18:13:52;;;;;;;17.00;8.65;;;5.70;99.90;;;;;;12430924;28;20103;-37
2021/11/10 18:19:54;;;;;;;17.00;9.80;;;5.70;99.90;;;;;;12431616;28;20096;-40
2021/11/10 18:25:59;;;;;;;15.13;8.55;;;5.60;99.90;;;;;;12414911;28;20416;-40
2021/11/10 18:32:01;;;;;;;15.60;8.50;;;5.60;99.90;;;;;;12410845;28;20077;-37
2021/11/10 18:38:05;;;;;;;17.00;8.32;;;5.40;99.90;;;;;;12430930;28;20188;-38
2021/11/10 18:44:11;;;;;;;14.80;7.95;;;5.00;99.90;;;;;;12430785;28;20046;-37
2021/11/10 18:50:16;;;;;;;22.75;9.45;;;4.70;99.90;;;;;;12423250;28;20045;-40
2021/11/10 18:56:23;;;;;;;16.77;9.32;;;4.50;99.90;;;;;;12425716;28;20096;-41
2021/11/10 19:02:27;;;;;;;19.02;9.30;;;4.80;99.90;;;;;;12428384;28;20598;-40
2021/11/10 19:21:18;;;;;;;16.92;8.93;;;5.40;99.90;;;;;;12383158;28;20050;-37
2021/11/10 19:27:23;;;;;;;17.90;9.68;;;5.60;99.90;;;;;;12425195;28;20054;-37
2021/11/10 19:33:24;;;;;;;17.23;9.48;;;5.70;99.90;;;;;;12422700;28;20049;-37
2021/11/10 19:39:26;;;;;;;15.95;9.20;;;5.50;99.90;;;;;;12423842;28;20431;-38
2021/11/10 19:45:29;;;;;;;12.27;8.57;;;5.70;99.90;;;;;;12422037;28;20511;-36
2021/11/10 19:51:33;;;;;;;20.40;10.50;;;5.60;99.90;;;;;;12424526;28;20045;-36
2021/11/10 19:57:40;;;;;;;22.05;10.82;;;5.70;99.90;;;;;;12423085;28;20137;-36
2021/11/10 20:03:43;;;;;;;17.50;10.18;;;5.50;99.90;;;;;;12423043;28;20097;-37
2021/11/10 20:09:45;;;;;;;13.63;8.75;;;5.50;99.90;;;;;;12425098;28;20484;-40
2021/11/10 20:15:49;;;;;;;20.07;9.87;;;5.40;99.90;;;;;;12422838;28;20057;-40
2021/11/10 20:21:53;;;;;;;16.98;10.20;;;5.30;99.90;;;;;;12420704;28;20050;-41
2021/11/10 20:27:55;;;;;;;20.83;13.43;;;5.20;99.90;;;;;;12407680;28;20087;-41
2021/11/10 20:33:57;;;;;;;23.13;12.05;;;5.20;99.90;;;;;;12406982;28;20049;-37
2021/11/10 20:39:59;;;;;;;17.05;9.45;;;5.30;99.90;;;;;;12422398;28;20100;-37
2021/11/10 20:46:01;;;;;;;18.52;10.40;;;5.20;99.90;;;;;;12423760;28;20054;-38
2021/11/10 20:52:05;;;;;;;14.25;9.88;;;5.10;99.90;;;;;;12422823;28;20137;-37
2021/11/10 20:58:10;;;;;;;22.88;10.63;;;5.30;99.90;;;;;;12422372;28;20050;-37
2021/11/10 21:04:12;;;;;;;22.70;12.75;;;5.20;99.90;;;;;;12424195;28;20484;-40
2021/11/10 21:10:15;;;;;;;17.52;10.15;;;5.00;99.90;;;;;;12422057;28;20913;-36
2021/11/10 21:16:18;;;;;;;18.23;10.77;;;5.00;99.90;;;;;;12422328;28;20050;-37
2021/11/10 21:22:21;;;;;;;;;;;5.00;99.90;;;;;;12422132;28;20072;-38
2021/11/10 21:28:24;;;;;;;17.77;11.40;;;4.90;99.90;;;;;;12402983;28;19933;-40
2021/11/10 21:34:26;;;;;;;20.10;11.85;;;5.00;99.90;;;;;;12423798;28;20057;-41
2021/11/10 21:40:28;;;;;;;20.65;10.55;;;5.00;99.90;;;;;;12406676;28;20050;-41
2021/11/10 21:46:31;;;;;;;18.42;10.82;;;4.60;99.90;;;;;;12421834;28;21853;-41
2021/11/10 21:52:33;;;;;;;19.65;11.18;;;4.50;99.90;;;;;;12420656;28;20505;-41
2021/11/10 21:58:37;;;;;;;20.65;11.00;;;4.50;99.90;;;;;;12422126;28;20136;-41
2021/11/10 22:04:41;;;;;;;19.25;10.07;;;4.20;99.90;;;;;;12419728;28;20403;-37
2021/11/10 22:10:43;;;;;;;16.88;10.52;;;3.80;99.90;;;;;;12420991;28;20049;-41
2021/11/10 22:16:45;;;;;;;15.88;11.00;;;3.90;99.90;;;;;;12428502;28;20054;-36
2021/11/10 22:22:48;;;;;;;24.55;13.43;;;4.20;99.90;;;;;;12433584;28;20175;-37
2021/11/10 22:28:50;;;;;;;22.95;12.70;;;4.20;99.90;;;;;;12430171;28;20187;-41
2021/11/10 22:34:56;;;;;;;27.23;12.85;;;4.30;99.90;;;;;;12429406;28;20108;-36
2021/11/10 22:40:59;;;;;;;22.38;12.52;;;4.40;99.90;;;;;;12425792;28;20578;-41
2021/11/10 22:47:01;;;;;;;20.48;12.25;;;4.60;99.90;;;;;;12427377;28;20099;-37
2021/11/10 22:53:03;;;;;;;22.40;13.25;;;4.60;99.90;;;;;;12424204;28;20049;-43
2021/11/10 22:59:05;;;;;;;20.77;12.02;;;4.80;99.90;;;;;;12428766;28;20053;-41
2021/11/10 23:05:07;;;;;;;23.90;12.55;;;4.80;99.90;;;;;;12409020;28;20069;-41
2021/11/10 23:11:09;;;;;;;22.42;12.80;;;4.80;99.90;;;;;;12429365;28;20528;-41
2021/11/10 23:17:11;;;;;;;20.02;12.20;;;5.00;99.90;;;;;;12423594;28;20446;-41
2021/11/10 23:23:13;;;;;;;22.17;13.27;;;5.10;99.90;;;;;;12424807;28;20557;-40
2021/11/10 23:29:15;;;;;;;23.15;13.35;;;5.10;99.90;;;;;;12426042;28;20085;-41
2021/11/10 23:35:20;;;;;;;24.83;13.82;;;4.90;99.90;;;;;;12423009;28;20054;-37
2021/11/10 23:41:23;;;;;;;27.95;14.30;;;5.20;99.90;;;;;;12423647;28;20054;-42
2021/11/10 23:47:25;;;;;;;29.10;14.38;;;5.20;99.90;;;;;;12424390;28;20141;-42
2021/11/10 23:53:27;;;;;;;24.77;14.45;;;5.30;99.90;;;;;;12424784;28;20050;-36
2021/11/10 23:59:29;;;;;;;22.95;13.40;;;5.30;99.90;;;;;;12427772;28;20104;-42
